Five Points, North Carolina
Current Conditions -  °F | °C
As of 3:51 PM on Saturday 25 Oct 2014 (Local Time) from KRDU Reporting Station
Clear Clear  
Wind Chill: 70°   Ceiling: Unl
Heat Index: 70°   Visibility: 10mi
Dew Point: 43°   Wind: 6mph
Humidity: 38%   Direction: 230°SW
Pressure: 29.92"   Gusts: NA
Location:  35.8084°N, 78.6471°W
Report Text: KRDU 251951Z 23005KT 10SM CLR 21/06 A2992 RMK AO2 SLP130 T02110061 $
Loading
Personal Weather Stations






























Interactive Weather Map
Tropical Storm Tracking
New forecast layout! Learn more

10-Day Weather Forecast

Advertisements
Track Severe Weather on mobile